GAP2362 RPME-RPVM
Flight info
| Callsign | GAP2362 |
|---|---|
| Flight time | 0h 29m |
| Altitude | 16000 |
| Route | BAMP1B JARED W14 BAMPA BAMPA3P |
| Aircraft | DH8D/M-SDE2E3FGRY/H |
Departure
| Time | 2026-04-28 06:04 |
|---|---|
| Airport | Bancasi Airport (RPME) |
Arrival
| Time | 2026-04-28 06:34 |
|---|---|
| Airport | Mactan Cebu International Airport (RPVM) |
| Time | Latitude | Longitude | Altitude | Speed | Heading |
|---|---|---|---|---|---|
| 2026-04-28 05:55 | 8.94867 | 125.48158 | 54 ft | 0 kts | 236° |
| 2026-04-28 06:00 | 8.94867 | 125.48155 | 54 ft | 1 kts | 262° |
| 2026-04-28 06:00 | 8.94874 | 125.48151 | 54 ft | 1 kts | 25° |
| 2026-04-28 06:00 | 8.94886 | 125.48181 | 54 ft | 5 kts | 82° |
| 2026-04-28 06:01 | 8.94889 | 125.48225 | 54 ft | 6 kts | 87° |
| 2026-04-28 06:01 | 8.94900 | 125.48277 | 55 ft | 8 kts | 70° |
| 2026-04-28 06:01 | 8.94918 | 125.48337 | 55 ft | 10 kts | 87° |
| 2026-04-28 06:01 | 8.94888 | 125.48416 | 56 ft | 14 kts | 116° |
| 2026-04-28 06:02 | 8.94838 | 125.48518 | 57 ft | 16 kts | 116° |
| 2026-04-28 06:02 | 8.94799 | 125.48613 | 58 ft | 9 kts | 100° |
| 2026-04-28 06:02 | 8.94787 | 125.48657 | 58 ft | 4 kts | 141° |
| 2026-04-28 06:02 | 8.94774 | 125.48653 | 58 ft | 3 kts | 264° |
| 2026-04-28 06:03 | 8.94780 | 125.48636 | 58 ft | 0 kts | 297° |
| 2026-04-28 06:03 | 8.94830 | 125.48534 | 57 ft | 48 kts | 297° |
| 2026-04-28 06:03 | 8.95114 | 125.47956 | 51 ft | 130 kts | 297° |
| 2026-04-28 06:03 | 8.95575 | 125.46996 | 168 ft | 164 kts | 300° |
| 2026-04-28 06:04 | 8.96096 | 125.45927 | 600 ft | 176 kts | 300° |
| 2026-04-28 06:04 | 8.96672 | 125.44807 | 1135 ft | 183 kts | 306° |
| 2026-04-28 06:04 | 8.97486 | 125.43803 | 1717 ft | 187 kts | 315° |
| 2026-04-28 06:04 | 8.98386 | 125.42830 | 2265 ft | 193 kts | 317° |
| 2026-04-28 06:05 | 8.99323 | 125.41839 | 2712 ft | 201 kts | 316° |
| 2026-04-28 06:05 | 9.00317 | 125.40789 | 3167 ft | 207 kts | 316° |
| 2026-04-28 06:05 | 9.01310 | 125.39743 | 3655 ft | 208 kts | 316° |
| 2026-04-28 06:05 | 9.02322 | 125.38680 | 4132 ft | 210 kts | 316° |
| 2026-04-28 06:06 | 9.03334 | 125.37621 | 4606 ft | 211 kts | 316° |
| 2026-04-28 06:06 | 9.04373 | 125.36536 | 5073 ft | 214 kts | 316° |
| 2026-04-28 06:06 | 9.05413 | 125.35453 | 5548 ft | 217 kts | 316° |
| 2026-04-28 06:06 | 9.06475 | 125.34348 | 5994 ft | 220 kts | 316° |
| 2026-04-28 06:07 | 9.07536 | 125.33244 | 6469 ft | 220 kts | 316° |
| 2026-04-28 06:07 | 9.08614 | 125.32124 | 6901 ft | 222 kts | 316° |
| 2026-04-28 06:07 | 9.09677 | 125.31020 | 7339 ft | 224 kts | 316° |
| 2026-04-28 06:07 | 9.10769 | 125.29885 | 7787 ft | 224 kts | 316° |
| 2026-04-28 06:08 | 9.11857 | 125.28754 | 8207 ft | 225 kts | 316° |
| 2026-04-28 06:08 | 9.12840 | 125.27499 | 8626 ft | 228 kts | 304° |
| 2026-04-28 06:08 | 9.13669 | 125.26148 | 9070 ft | 227 kts | 303° |
| 2026-04-28 06:08 | 9.14490 | 125.24790 | 9445 ft | 229 kts | 303° |
| 2026-04-28 06:09 | 9.15333 | 125.23397 | 9861 ft | 229 kts | 303° |
| 2026-04-28 06:09 | 9.16157 | 125.22035 | 10224 ft | 231 kts | 303° |
| 2026-04-28 06:09 | 9.17000 | 125.20647 | 10634 ft | 231 kts | 303° |
| 2026-04-28 06:09 | 9.17846 | 125.19253 | 10979 ft | 234 kts | 303° |
| 2026-04-28 06:10 | 9.18699 | 125.17851 | 11363 ft | 236 kts | 302° |
| 2026-04-28 06:10 | 9.19560 | 125.16434 | 11751 ft | 237 kts | 302° |
| 2026-04-28 06:10 | 9.20421 | 125.15018 | 12142 ft | 238 kts | 302° |
| 2026-04-28 06:10 | 9.21290 | 125.13588 | 12524 ft | 238 kts | 302° |
| 2026-04-28 06:11 | 9.22159 | 125.12160 | 12881 ft | 240 kts | 302° |
| 2026-04-28 06:11 | 9.23026 | 125.10734 | 13235 ft | 241 kts | 302° |
| 2026-04-28 06:11 | 9.23905 | 125.09288 | 13603 ft | 240 kts | 302° |
| 2026-04-28 06:11 | 9.24784 | 125.07842 | 13911 ft | 243 kts | 303° |
| 2026-04-28 06:12 | 9.25679 | 125.06371 | 14265 ft | 243 kts | 303° |
| 2026-04-28 06:12 | 9.26554 | 125.04932 | 14609 ft | 243 kts | 303° |
| 2026-04-28 06:12 | 9.27447 | 125.03464 | 14914 ft | 245 kts | 303° |
| 2026-04-28 06:12 | 9.28343 | 125.01990 | 15233 ft | 246 kts | 303° |
| 2026-04-28 06:13 | 9.29247 | 125.00503 | 15551 ft | 247 kts | 303° |
| 2026-04-28 06:13 | 9.30159 | 124.99004 | 15753 ft | 256 kts | 303° |
| 2026-04-28 06:13 | 9.31119 | 124.97425 | 15830 ft | 271 kts | 303° |
| 2026-04-28 06:13 | 9.32131 | 124.95759 | 15853 ft | 287 kts | 303° |
| 2026-04-28 06:14 | 9.33202 | 124.93993 | 15860 ft | 305 kts | 303° |
| 2026-04-28 06:14 | 9.34376 | 124.92058 | 15867 ft | 331 kts | 303° |
| 2026-04-28 06:14 | 9.35611 | 124.90020 | 15863 ft | 351 kts | 302° |
| 2026-04-28 06:14 | 9.36912 | 124.87871 | 15861 ft | 366 kts | 302° |
| 2026-04-28 06:15 | 9.38243 | 124.85669 | 15849 ft | 370 kts | 302° |
| 2026-04-28 06:15 | 9.39597 | 124.83429 | 15844 ft | 371 kts | 302° |
| 2026-04-28 06:15 | 9.40939 | 124.81210 | 15842 ft | 369 kts | 302° |
| 2026-04-28 06:15 | 9.42274 | 124.79004 | 15844 ft | 368 kts | 303° |
| 2026-04-28 06:16 | 9.43608 | 124.76802 | 15848 ft | 367 kts | 302° |
| 2026-04-28 06:16 | 9.44938 | 124.74608 | 15849 ft | 366 kts | 303° |
| 2026-04-28 06:16 | 9.46284 | 124.72388 | 15851 ft | 365 kts | 303° |
| 2026-04-28 06:16 | 9.47606 | 124.70207 | 15849 ft | 365 kts | 303° |
| 2026-04-28 06:17 | 9.48928 | 124.68026 | 15849 ft | 365 kts | 303° |
| 2026-04-28 06:17 | 9.50262 | 124.65826 | 15848 ft | 365 kts | 303° |
| 2026-04-28 06:17 | 9.51595 | 124.63627 | 15849 ft | 364 kts | 303° |
| 2026-04-28 06:18 | 9.54250 | 124.59248 | 15848 ft | 364 kts | 303° |
| 2026-04-28 06:18 | 9.55570 | 124.57069 | 15847 ft | 364 kts | 303° |
| 2026-04-28 06:18 | 9.56893 | 124.54885 | 15849 ft | 364 kts | 303° |
| 2026-04-28 06:18 | 9.58223 | 124.52689 | 15851 ft | 364 kts | 303° |
| 2026-04-28 06:19 | 9.59537 | 124.50520 | 15854 ft | 364 kts | 303° |
| 2026-04-28 06:19 | 9.60860 | 124.48336 | 15859 ft | 364 kts | 303° |
| 2026-04-28 06:19 | 9.62182 | 124.46153 | 15860 ft | 364 kts | 303° |
| 2026-04-28 06:19 | 9.63503 | 124.43971 | 15867 ft | 364 kts | 303° |
| 2026-04-28 06:20 | 9.64832 | 124.41775 | 15872 ft | 364 kts | 303° |
| 2026-04-28 06:20 | 9.66155 | 124.39587 | 15875 ft | 364 kts | 303° |
| 2026-04-28 06:20 | 9.67484 | 124.37392 | 15885 ft | 364 kts | 303° |
| 2026-04-28 06:20 | 9.68799 | 124.35219 | 15892 ft | 364 kts | 303° |
| 2026-04-28 06:21 | 9.70125 | 124.33027 | 15900 ft | 363 kts | 303° |
| 2026-04-28 06:21 | 9.71446 | 124.30843 | 15912 ft | 363 kts | 303° |
| 2026-04-28 06:21 | 9.72763 | 124.28663 | 15917 ft | 362 kts | 303° |
| 2026-04-28 06:21 | 9.74080 | 124.26483 | 15626 ft | 361 kts | 302° |
| 2026-04-28 06:22 | 9.75380 | 124.24328 | 15211 ft | 359 kts | 302° |
| 2026-04-28 06:22 | 9.76683 | 124.22167 | 14743 ft | 359 kts | 302° |
| 2026-04-28 06:22 | 9.77979 | 124.20019 | 14257 ft | 359 kts | 302° |
| 2026-04-28 06:22 | 9.79276 | 124.17870 | 13758 ft | 357 kts | 302° |
| 2026-04-28 06:23 | 9.80581 | 124.15752 | 13258 ft | 354 kts | 304° |
| 2026-04-28 06:23 | 9.82211 | 124.13906 | 12797 ft | 347 kts | 316° |
| 2026-04-28 06:23 | 9.83975 | 124.12225 | 12309 ft | 347 kts | 317° |
| 2026-04-28 06:23 | 9.85731 | 124.10561 | 11834 ft | 345 kts | 317° |
| 2026-04-28 06:24 | 9.87466 | 124.08914 | 11390 ft | 335 kts | 317° |
| 2026-04-28 06:24 | 9.89128 | 124.07331 | 10997 ft | 321 kts | 317° |
| 2026-04-28 06:24 | 9.90723 | 124.05813 | 10592 ft | 309 kts | 318° |
| 2026-04-28 06:24 | 9.92269 | 124.04340 | 10186 ft | 298 kts | 318° |
| 2026-04-28 06:25 | 9.93750 | 124.02930 | 9794 ft | 289 kts | 318° |
| 2026-04-28 06:25 | 9.95206 | 124.01543 | 9400 ft | 282 kts | 318° |
| 2026-04-28 06:25 | 9.96616 | 124.00202 | 9029 ft | 280 kts | 318° |
| 2026-04-28 06:25 | 9.98041 | 123.98844 | 8659 ft | 279 kts | 318° |
| 2026-04-28 06:26 | 9.99457 | 123.97495 | 8277 ft | 277 kts | 318° |
| 2026-04-28 06:26 | 10.00854 | 123.96161 | 7913 ft | 277 kts | 318° |
| 2026-04-28 06:26 | 10.02262 | 123.94817 | 7542 ft | 277 kts | 318° |
| 2026-04-28 06:26 | 10.03660 | 123.93481 | 7173 ft | 276 kts | 317° |
| 2026-04-28 06:27 | 10.05059 | 123.92144 | 6795 ft | 276 kts | 317° |
| 2026-04-28 06:27 | 10.06465 | 123.90800 | 6422 ft | 275 kts | 317° |
| 2026-04-28 06:27 | 10.07850 | 123.89469 | 6058 ft | 274 kts | 317° |
| 2026-04-28 06:27 | 10.09202 | 123.88110 | 5690 ft | 273 kts | 316° |
| 2026-04-28 06:28 | 10.10534 | 123.86748 | 5322 ft | 268 kts | 316° |
| 2026-04-28 06:28 | 10.11822 | 123.85427 | 4969 ft | 259 kts | 317° |
| 2026-04-28 06:28 | 10.13091 | 123.84159 | 4557 ft | 254 kts | 321° |
| 2026-04-28 06:28 | 10.14660 | 123.83405 | 3979 ft | 242 kts | 358° |
| 2026-04-28 06:29 | 10.16186 | 123.83743 | 3685 ft | 219 kts | 34° |
| 2026-04-28 06:29 | 10.17362 | 123.84650 | 3421 ft | 206 kts | 43° |
| 2026-04-28 06:29 | 10.18428 | 123.85580 | 3161 ft | 200 kts | 44° |
| 2026-04-28 06:29 | 10.19461 | 123.86521 | 2896 ft | 194 kts | 45° |
| 2026-04-28 06:30 | 10.20437 | 123.87432 | 2651 ft | 190 kts | 46° |
| 2026-04-28 06:30 | 10.21396 | 123.88345 | 2404 ft | 186 kts | 46° |
| 2026-04-28 06:30 | 10.22297 | 123.89209 | 2158 ft | 167 kts | 46° |
| 2026-04-28 06:30 | 10.23085 | 123.89966 | 1958 ft | 142 kts | 47° |
| 2026-04-28 06:31 | 10.23731 | 123.90593 | 1803 ft | 119 kts | 48° |
| 2026-04-28 06:31 | 10.24322 | 123.91196 | 1658 ft | 120 kts | 50° |
| 2026-04-28 06:31 | 10.24909 | 123.91801 | 1506 ft | 124 kts | 50° |
| 2026-04-28 06:31 | 10.25534 | 123.92442 | 1340 ft | 130 kts | 49° |
| 2026-04-28 06:32 | 10.26185 | 123.93099 | 1170 ft | 131 kts | 46° |
| 2026-04-28 06:32 | 10.26838 | 123.93750 | 976 ft | 130 kts | 47° |
| 2026-04-28 06:32 | 10.27481 | 123.94398 | 820 ft | 133 kts | 49° |
| 2026-04-28 06:32 | 10.28147 | 123.95055 | 637 ft | 133 kts | 47° |
| 2026-04-28 06:33 | 10.28802 | 123.95717 | 452 ft | 131 kts | 46° |
| 2026-04-28 06:33 | 10.29466 | 123.96374 | 279 ft | 136 kts | 49° |
| 2026-04-28 06:33 | 10.30149 | 123.97060 | 105 ft | 137 kts | 41° |
| 2026-04-28 06:33 | 10.30770 | 123.97688 | 38 ft | 98 kts | 44° |
| 2026-04-28 06:34 | 10.31105 | 123.98023 | 38 ft | 48 kts | 45° |
| 2026-04-28 06:34 | 10.31298 | 123.98218 | 38 ft | 24 kts | 44° |
| 2026-04-28 06:34 | 10.31379 | 123.98293 | 38 ft | 12 kts | 24° |
| 2026-04-28 06:34 | 10.31450 | 123.98266 | 38 ft | 12 kts | 315° |
| 2026-04-28 06:35 | 10.31521 | 123.98192 | 38 ft | 16 kts | 316° |
| 2026-04-28 06:35 | 10.31591 | 123.98126 | 38 ft | 12 kts | 329° |
| 2026-04-28 06:35 | 10.31639 | 123.98126 | 38 ft | 4 kts | 37° |
| 2026-04-28 06:35 | 10.31662 | 123.98132 | 38 ft | 4 kts | 335° |
| 2026-04-28 06:36 | 10.31686 | 123.98109 | 38 ft | 4 kts | 313° |
| 2026-04-28 06:36 | 10.31695 | 123.98099 | 38 ft | 0 kts | 314° |